sensor_id;sensor_type;location;lat;lon;timestamp;P1;durP1;ratioP1;P2;durP2;ratioP2
7169;SDS011;3626;42.656;23.312;2024-01-30T00:00:00;7.27;;;4.30;;
7169;SDS011;3626;42.656;23.312;2024-01-30T00:00:06;7.07;;;4.20;;
7169;SDS011;3626;42.656;23.312;2024-01-30T00:00:13;6.67;;;4.02;;
7169;SDS011;3626;42.656;23.312;2024-01-30T00:00:20;6.53;;;3.93;;
7169;SDS011;3626;42.656;23.312;2024-01-30T00:00:26;7.00;;;4.10;;
7169;SDS011;3626;42.656;23.312;2024-01-30T00:00:32;7.15;;;4.13;;
7169;SDS011;3626;42.656;23.312;2024-01-30T00:00:38;7.15;;;4.10;;
7169;SDS011;3626;42.656;23.312;2024-01-30T00:00:44;7.65;;;4.20;;
7169;SDS011;3626;42.656;23.312;2024-01-30T00:00:50;7.65;;;4.13;;
7169;SDS011;3626;42.656;23.312;2024-01-30T00:00:56;7.90;;;4.10;;
7169;SDS011;3626;42.656;23.312;2024-01-30T00:01:02;8.07;;;4.20;;
7169;SDS011;3626;42.656;23.312;2024-01-30T00:01:08;8.27;;;4.20;;
7169;SDS011;3626;42.656;23.312;2024-01-30T00:01:14;8.48;;;4.38;;
7169;SDS011;3626;42.656;23.312;2024-01-30T00:01:20;9.02;;;4.50;;
7169;SDS011;3626;42.656;23.312;2024-01-30T00:01:26;8.75;;;4.40;;
7169;SDS011;3626;42.656;23.312;2024-01-30T00:01:32;8.88;;;4.40;;
7169;SDS011;3626;42.656;23.312;2024-01-30T00:01:37;9.10;;;4.50;;
7169;SDS011;3626;42.656;23.312;2024-01-30T00:01:43;8.67;;;4.50;;
7169;SDS011;3626;42.656;23.312;2024-01-30T00:01:49;8.88;;;4.57;;
7169;SDS011;3626;42.656;23.312;2024-01-30T00:01:56;9.03;;;4.80;;
7169;SDS011;3626;42.656;23.312;2024-01-30T00:02:02;9.10;;;4.85;;
7169;SDS011;3626;42.656;23.312;2024-01-30T00:02:08;9.23;;;4.95;;
7169;SDS011;3626;42.656;23.312;2024-01-30T00:02:14;9.32;;;4.88;;
7169;SDS011;3626;42.656;23.312;2024-01-30T00:02:20;9.00;;;4.70;;
7169;SDS011;3626;42.656;23.312;2024-01-30T00:02:25;9.07;;;4.70;;
7169;SDS011;3626;42.656;23.312;2024-01-30T00:02:31;8.85;;;4.70;;
7169;SDS011;3626;42.656;23.312;2024-01-30T00:02:37;9.02;;;4.70;;
7169;SDS011;3626;42.656;23.312;2024-01-30T00:02:43;9.20;;;4.80;;
7169;SDS011;3626;42.656;23.312;2024-01-30T00:02:50;9.13;;;4.77;;
7169;SDS011;3626;42.656;23.312;2024-01-30T00:02:56;8.85;;;4.70;;
7169;SDS011;3626;42.656;23.312;2024-01-30T00:03:02;9.15;;;4.80;;
7169;SDS011;3626;42.656;23.312;2024-01-30T00:03:08;9.30;;;4.90;;
7169;SDS011;3626;42.656;23.312;2024-01-30T00:03:14;9.00;;;4.97;;
7169;SDS011;3626;42.656;23.312;2024-01-30T00:03:20;8.73;;;5.10;;
7169;SDS011;3626;42.656;23.312;2024-01-30T00:03:26;8.70;;;5.10;;
7169;SDS011;3626;42.656;23.312;2024-01-30T00:03:32;8.63;;;5.10;;
7169;SDS011;3626;42.656;23.312;2024-01-30T00:03:38;8.48;;;5.10;;
7169;SDS011;3626;42.656;23.312;2024-01-30T00:03:44;8.23;;;5.07;;
7169;SDS011;3626;42.656;23.312;2024-01-30T00:03:50;8.60;;;5.07;;
7169;SDS011;3626;42.656;23.312;2024-01-30T00:03:56;9.40;;;5.25;;
7169;SDS011;3626;42.656;23.312;2024-01-30T00:04:02;9.50;;;5.30;;
7169;SDS011;3626;42.656;23.312;2024-01-30T00:04:08;9.50;;;5.30;;
7169;SDS011;3626;42.656;23.312;2024-01-30T00:04:14;9.55;;;5.40;;
7169;SDS011;3626;42.656;23.312;2024-01-30T00:04:21;9.74;;;5.42;;
7169;SDS011;3626;42.656;23.312;2024-01-30T00:04:27;9.82;;;5.43;;
7169;SDS011;3626;42.656;23.312;2024-01-30T00:04:33;9.82;;;5.38;;
7169;SDS011;3626;42.656;23.312;2024-01-30T00:04:39;10.35;;;5.53;;
7169;SDS011;3626;42.656;23.312;2024-01-30T00:04:45;10.43;;;5.50;;
7169;SDS011;3626;42.656;23.312;2024-01-30T00:04:50;9.85;;;5.35;;
7169;SDS011;3626;42.656;23.312;2024-01-30T00:04:56;9.25;;;5.25;;
7169;SDS011;3626;42.656;23.312;2024-01-30T00:05:02;8.77;;;5.05;;
7169;SDS011;3626;42.656;23.312;2024-01-30T00:05:09;8.80;;;5.00;;
7169;SDS011;3626;42.656;23.312;2024-01-30T00:05:14;9.45;;;4.95;;
7169;SDS011;3626;42.656;23.312;2024-01-30T00:05:20;10.23;;;5.05;;
7169;SDS011;3626;42.656;23.312;2024-01-30T00:05:26;10.55;;;5.05;;
7169;SDS011;3626;42.656;23.312;2024-01-30T00:05:32;10.85;;;5.13;;
7169;SDS011;3626;42.656;23.312;2024-01-30T00:05:39;10.38;;;5.02;;
7169;SDS011;3626;42.656;23.312;2024-01-30T00:05:45;10.07;;;4.93;;
7169;SDS011;3626;42.656;23.312;2024-01-30T00:05:51;10.18;;;5.00;;
7169;SDS011;3626;42.656;23.312;2024-01-30T00:05:57;10.30;;;4.80;;
7169;SDS011;3626;42.656;23.312;2024-01-30T00:06:03;10.32;;;4.80;;
7169;SDS011;3626;42.656;23.312;2024-01-30T00:06:09;9.93;;;4.70;;
7169;SDS011;3626;42.656;23.312;2024-01-30T00:06:17;9.15;;;4.65;;
7169;SDS011;3626;42.656;23.312;2024-01-30T00:06:23;8.52;;;4.54;;
7169;SDS011;3626;42.656;23.312;2024-01-30T00:06:29;8.33;;;4.50;;
7169;SDS011;3626;42.656;23.312;2024-01-30T00:06:36;8.10;;;4.46;;
7169;SDS011;3626;42.656;23.312;2024-01-30T00:06:42;8.40;;;4.63;;
7169;SDS011;3626;42.656;23.312;2024-01-30T00:06:48;8.40;;;4.63;;
7169;SDS011;3626;42.656;23.312;2024-01-30T00:06:54;8.18;;;4.65;;
7169;SDS011;3626;42.656;23.312;2024-01-30T00:07:00;8.00;;;4.70;;
7169;SDS011;3626;42.656;23.312;2024-01-30T00:07:05;7.97;;;4.70;;
7169;SDS011;3626;42.656;23.312;2024-01-30T00:07:11;8.43;;;4.87;;
7169;SDS011;3626;42.656;23.312;2024-01-30T00:07:17;8.43;;;4.90;;
7169;SDS011;3626;42.656;23.312;2024-01-30T00:07:23;8.55;;;4.95;;
7169;SDS011;3626;42.656;23.312;2024-01-30T00:07:29;8.15;;;4.85;;
7169;SDS011;3626;42.656;23.312;2024-01-30T00:07:35;8.23;;;4.83;;
7169;SDS011;3626;42.656;23.312;2024-01-30T00:07:42;8.25;;;4.80;;
7169;SDS011;3626;42.656;23.312;2024-01-30T00:07:48;8.44;;;4.70;;
7169;SDS011;3626;42.656;23.312;2024-01-30T00:07:54;8.60;;;4.80;;
7169;SDS011;3626;42.656;23.312;2024-01-30T00:08:00;8.82;;;4.78;;
7169;SDS011;3626;42.656;23.312;2024-01-30T00:08:06;9.05;;;4.90;;
7169;SDS011;3626;42.656;23.312;2024-01-30T00:08:11;8.63;;;4.68;;
7169;SDS011;3626;42.656;23.312;2024-01-30T00:08:17;8.45;;;4.60;;
7169;SDS011;3626;42.656;23.312;2024-01-30T00:08:23;8.35;;;4.55;;
7169;SDS011;3626;42.656;23.312;2024-01-30T00:08:29;8.65;;;4.60;;
7169;SDS011;3626;42.656;23.312;2024-01-30T00:08:35;8.60;;;4.57;;
7169;SDS011;3626;42.656;23.312;2024-01-30T00:08:41;8.30;;;4.53;;
7169;SDS011;3626;42.656;23.312;2024-01-30T00:08:47;8.23;;;4.60;;
7169;SDS011;3626;42.656;23.312;2024-01-30T00:08:54;8.36;;;4.70;;
7169;SDS011;3626;42.656;23.312;2024-01-30T00:08:59;9.07;;;4.75;;
7169;SDS011;3626;42.656;23.312;2024-01-30T00:09:06;9.12;;;4.74;;
7169;SDS011;3626;42.656;23.312;2024-01-30T00:09:12;9.15;;;4.78;;
7169;SDS011;3626;42.656;23.312;2024-01-30T00:09:18;9.45;;;4.90;;
7169;SDS011;3626;42.656;23.312;2024-01-30T00:09:24;9.70;;;5.00;;
7169;SDS011;3626;42.656;23.312;2024-01-30T00:09:30;9.52;;;5.10;;
7169;SDS011;3626;42.656;23.312;2024-01-30T00:09:37;9.82;;;5.10;;
7169;SDS011;3626;42.656;23.312;2024-01-30T00:09:46;9.90;;;5.07;;
7169;SDS011;3626;42.656;23.312;2024-01-30T00:09:52;9.50;;;4.93;;
7169;SDS011;3626;42.656;23.312;2024-01-30T00:09:58;8.80;;;4.80;;
7169;SDS011;3626;42.656;23.312;2024-01-30T00:10:04;7.95;;;4.75;;
7169;SDS011;3626;42.656;23.312;2024-01-30T00:10:11;8.20;;;4.80;;
7169;SDS011;3626;42.656;23.312;2024-01-30T00:10:17;8.23;;;4.78;;
7169;SDS011;3626;42.656;23.312;2024-01-30T00:10:23;8.13;;;4.83;;
7169;SDS011;3626;42.656;23.312;2024-01-30T00:10:28;8.35;;;4.80;;
7169;SDS011;3626;42.656;23.312;2024-01-30T00:10:34;8.15;;;4.80;;
7169;SDS011;3626;42.656;23.312;2024-01-30T00:10:41;8.27;;;4.90;;
7169;SDS011;3626;42.656;23.312;2024-01-30T00:10:47;8.20;;;4.90;;
7169;SDS011;3626;42.656;23.312;2024-01-30T00:10:53;8.55;;;5.05;;
7169;SDS011;3626;42.656;23.312;2024-01-30T00:11:00;8.90;;;5.12;;
7169;SDS011;3626;42.656;23.312;2024-01-30T00:11:08;8.88;;;5.10;;
7169;SDS011;3626;42.656;23.312;2024-01-30T00:11:14;8.57;;;5.00;;
7169;SDS011;3626;42.656;23.312;2024-01-30T00:11:20;8.45;;;4.90;;
7169;SDS011;3626;42.656;23.312;2024-01-30T00:11:26;8.48;;;4.90;;
7169;SDS011;3626;42.656;23.312;2024-01-30T00:11:33;8.57;;;4.90;;
7169;SDS011;3626;42.656;23.312;2024-01-30T00:11:39;8.40;;;4.90;;
7169;SDS011;3626;42.656;23.312;2024-01-30T00:11:45;8.07;;;4.80;;
7169;SDS011;3626;42.656;23.312;2024-01-30T00:11:50;8.15;;;4.80;;
7169;SDS011;3626;42.656;23.312;2024-01-30T00:11:56;8.07;;;4.70;;
7169;SDS011;3626;42.656;23.312;2024-01-30T00:12:02;7.82;;;4.60;;
7169;SDS011;3626;42.656;23.312;2024-01-30T00:12:08;8.15;;;4.80;;
7169;SDS011;3626;42.656;23.312;2024-01-30T00:12:14;8.20;;;4.82;;
7169;SDS011;3626;42.656;23.312;2024-01-30T00:12:20;8.15;;;4.90;;
7169;SDS011;3626;42.656;23.312;2024-01-30T00:12:26;8.13;;;4.93;;
7169;SDS011;3626;42.656;23.312;2024-01-30T00:12:32;8.10;;;4.82;;
7169;SDS011;3626;42.656;23.312;2024-01-30T00:12:39;8.80;;;5.13;;
7169;SDS011;3626;42.656;23.312;2024-01-30T00:12:44;9.38;;;5.28;;
7169;SDS011;3626;42.656;23.312;2024-01-30T00:12:50;9.17;;;5.20;;
7169;SDS011;3626;42.656;23.312;2024-01-30T00:12:56;9.32;;;5.28;;
7169;SDS011;3626;42.656;23.312;2024-01-30T00:13:02;9.32;;;5.38;;
7169;SDS011;3626;42.656;23.312;2024-01-30T00:13:08;9.18;;;5.20;;
7169;SDS011;3626;42.656;23.312;2024-01-30T00:13:13;9.10;;;5.20;;
7169;SDS011;3626;42.656;23.312;2024-01-30T00:13:21;9.00;;;5.20;;
7169;SDS011;3626;42.656;23.312;2024-01-30T00:13:27;8.80;;;5.13;;
7169;SDS011;3626;42.656;23.312;2024-01-30T00:13:33;8.90;;;5.15;;
7169;SDS011;3626;42.656;23.312;2024-01-30T00:13:39;8.93;;;5.03;;
7169;SDS011;3626;42.656;23.312;2024-01-30T00:13:45;9.00;;;4.90;;
7169;SDS011;3626;42.656;23.312;2024-01-30T00:13:51;9.18;;;4.80;;
7169;SDS011;3626;42.656;23.312;2024-01-30T00:13:57;9.30;;;4.83;;
7169;SDS011;3626;42.656;23.312;2024-01-30T00:14:02;9.48;;;4.80;;
7169;SDS011;3626;42.656;23.312;2024-01-30T00:14:08;9.25;;;4.80;;
7169;SDS011;3626;42.656;23.312;2024-01-30T00:14:14;10.13;;;4.90;;
7169;SDS011;3626;42.656;23.312;2024-01-30T00:14:20;10.98;;;4.90;;
7169;SDS011;3626;42.656;23.312;2024-01-30T00:14:26;11.17;;;5.00;;
7169;SDS011;3626;42.656;23.312;2024-01-30T00:14:32;11.02;;;4.90;;
7169;SDS011;3626;42.656;23.312;2024-01-30T00:14:40;10.70;;;4.80;;
7169;SDS011;3626;42.656;23.312;2024-01-30T00:14:46;10.38;;;4.83;;
7169;SDS011;3626;42.656;23.312;2024-01-30T00:14:52;10.30;;;4.90;;
7169;SDS011;3626;42.656;23.312;2024-01-30T00:14:58;10.20;;;4.85;;
7169;SDS011;3626;42.656;23.312;2024-01-30T00:15:04;10.20;;;4.90;;
7169;SDS011;3626;42.656;23.312;2024-01-30T00:15:13;10.05;;;4.80;;
7169;SDS011;3626;42.656;23.312;2024-01-30T00:15:20;9.00;;;4.80;;
7169;SDS011;3626;42.656;23.312;2024-01-30T00:15:26;9.20;;;4.80;;
7169;SDS011;3626;42.656;23.312;2024-01-30T00:15:31;8.93;;;4.80;;
7169;SDS011;3626;42.656;23.312;2024-01-30T00:15:37;8.63;;;4.80;;
7169;SDS011;3626;42.656;23.312;2024-01-30T00:15:44;8.50;;;4.83;;
7169;SDS011;3626;42.656;23.312;2024-01-30T00:15:49;8.50;;;4.88;;
7169;SDS011;3626;42.656;23.312;2024-01-30T00:15:55;8.32;;;4.93;;
7169;SDS011;3626;42.656;23.312;2024-01-30T00:16:01;8.25;;;4.90;;
7169;SDS011;3626;42.656;23.312;2024-01-30T00:16:07;8.23;;;4.88;;
7169;SDS011;3626;42.656;23.312;2024-01-30T00:16:19;7.93;;;4.80;;
7169;SDS011;3626;42.656;23.312;2024-01-30T00:16:28;7.45;;;4.71;;
7169;SDS011;3626;42.656;23.312;2024-01-30T00:16:35;7.45;;;4.80;;
7169;SDS011;3626;42.656;23.312;2024-01-30T00:16:40;7.70;;;4.80;;
7169;SDS011;3626;42.656;23.312;2024-01-30T00:16:46;7.70;;;4.70;;
7169;SDS011;3626;42.656;23.312;2024-01-30T00:16:52;7.80;;;4.65;;
7169;SDS011;3626;42.656;23.312;2024-01-30T00:16:58;8.13;;;4.65;;
7169;SDS011;3626;42.656;23.312;2024-01-30T00:17:04;8.60;;;4.80;;
7169;SDS011;3626;42.656;23.312;2024-01-30T00:17:09;9.30;;;4.95;;
7169;SDS011;3626;42.656;23.312;2024-01-30T00:17:15;9.73;;;5.00;;
7169;SDS011;3626;42.656;23.312;2024-01-30T00:17:21;9.80;;;5.00;;
7169;SDS011;3626;42.656;23.312;2024-01-30T00:17:27;9.50;;;4.90;;
7169;SDS011;3626;42.656;23.312;2024-01-30T00:17:33;9.40;;;4.90;;
7169;SDS011;3626;42.656;23.312;2024-01-30T00:17:39;9.80;;;4.97;;
7169;SDS011;3626;42.656;23.312;2024-01-30T00:17:44;10.00;;;5.13;;
7169;SDS011;3626;42.656;23.312;2024-01-30T00:17:50;10.10;;;5.15;;
7169;SDS011;3626;42.656;23.312;2024-01-30T00:17:57;10.13;;;5.03;;
7169;SDS011;3626;42.656;23.312;2024-01-30T00:18:03;9.40;;;4.90;;
7169;SDS011;3626;42.656;23.312;2024-01-30T00:18:10;8.80;;;4.68;;
7169;SDS011;3626;42.656;23.312;2024-01-30T00:18:16;8.40;;;4.60;;
7169;SDS011;3626;42.656;23.312;2024-01-30T00:18:22;8.63;;;4.72;;
7169;SDS011;3626;42.656;23.312;2024-01-30T00:18:28;9.23;;;4.93;;
7169;SDS011;3626;42.656;23.312;2024-01-30T00:18:33;9.93;;;5.00;;
7169;SDS011;3626;42.656;23.312;2024-01-30T00:18:39;9.77;;;4.93;;
7169;SDS011;3626;42.656;23.312;2024-01-30T00:18:45;9.40;;;4.80;;
7169;SDS011;3626;42.656;23.312;2024-01-30T00:18:51;9.30;;;4.77;;
7169;SDS011;3626;42.656;23.312;2024-01-30T00:18:57;9.53;;;4.93;;
7169;SDS011;3626;42.656;23.312;2024-01-30T00:19:03;10.37;;;5.13;;
7169;SDS011;3626;42.656;23.312;2024-01-30T00:19:09;10.50;;;5.15;;
7169;SDS011;3626;42.656;23.312;2024-01-30T00:19:14;10.52;;;5.20;;
7169;SDS011;3626;42.656;23.312;2024-01-30T00:19:20;10.32;;;5.20;;
7169;SDS011;3626;42.656;23.312;2024-01-30T00:19:26;10.02;;;5.05;;
7169;SDS011;3626;42.656;23.312;2024-01-30T00:19:32;9.38;;;4.90;;
7169;SDS011;3626;42.656;23.312;2024-01-30T00:19:38;9.40;;;4.93;;
7169;SDS011;3626;42.656;23.312;2024-01-30T00:19:44;10.23;;;5.13;;
7169;SDS011;3626;42.656;23.312;2024-01-30T00:19:49;10.27;;;5.25;;
7169;SDS011;3626;42.656;23.312;2024-01-30T00:19:55;9.90;;;5.03;;
7169;SDS011;3626;42.656;23.312;2024-01-30T00:20:01;9.43;;;4.97;;
7169;SDS011;3626;42.656;23.312;2024-01-30T00:20:10;9.30;;;5.00;;
7169;SDS011;3626;42.656;23.312;2024-01-30T00:20:17;9.22;;;5.00;;
7169;SDS011;3626;42.656;23.312;2024-01-30T00:20:23;9.30;;;5.00;;
7169;SDS011;3626;42.656;23.312;2024-01-30T00:20:29;9.27;;;5.10;;
7169;SDS011;3626;42.656;23.312;2024-01-30T00:20:35;9.37;;;5.17;;
7169;SDS011;3626;42.656;23.312;2024-01-30T00:20:40;8.80;;;4.95;;
7169;SDS011;3626;42.656;23.312;2024-01-30T00:20:47;8.34;;;4.80;;
7169;SDS011;3626;42.656;23.312;2024-01-30T00:20:53;9.00;;;5.07;;
7169;SDS011;3626;42.656;23.312;2024-01-30T00:20:59;9.13;;;5.20;;
7169;SDS011;3626;42.656;23.312;2024-01-30T00:21:05;8.70;;;5.10;;
7169;SDS011;3626;42.656;23.312;2024-01-30T00:21:11;8.73;;;5.10;;
7169;SDS011;3626;42.656;23.312;2024-01-30T00:21:16;8.68;;;5.00;;
7169;SDS011;3626;42.656;23.312;2024-01-30T00:21:22;8.40;;;4.95;;
7169;SDS011;3626;42.656;23.312;2024-01-30T00:21:29;8.47;;;4.87;;
7169;SDS011;3626;42.656;23.312;2024-01-30T00:21:34;8.30;;;4.80;;
7169;SDS011;3626;42.656;23.312;2024-01-30T00:21:40;8.52;;;4.97;;
7169;SDS011;3626;42.656;23.312;2024-01-30T00:21:46;8.23;;;5.00;;
7169;SDS011;3626;42.656;23.312;2024-01-30T00:21:52;7.97;;;5.00;;
7169;SDS011;3626;42.656;23.312;2024-01-30T00:21:58;8.45;;;4.90;;
7169;SDS011;3626;42.656;23.312;2024-01-30T00:22:04;8.70;;;4.95;;
7169;SDS011;3626;42.656;23.312;2024-01-30T00:22:09;8.93;;;4.95;;
7169;SDS011;3626;42.656;23.312;2024-01-30T00:22:16;8.93;;;5.00;;
7169;SDS011;3626;42.656;23.312;2024-01-30T00:22:22;8.98;;;5.00;;
7169;SDS011;3626;42.656;23.312;2024-01-30T00:22:28;9.10;;;5.13;;
7169;SDS011;3626;42.656;23.312;2024-01-30T00:22:35;9.12;;;5.26;;
7169;SDS011;3626;42.656;23.312;2024-01-30T00:22:41;9.02;;;5.20;;
7169;SDS011;3626;42.656;23.312;2024-01-30T00:22:47;9.20;;;5.20;;
7169;SDS011;3626;42.656;23.312;2024-01-30T00:22:53;9.20;;;5.10;;
7169;SDS011;3626;42.656;23.312;2024-01-30T00:22:58;8.93;;;5.25;;
7169;SDS011;3626;42.656;23.312;2024-01-30T00:23:04;9.00;;;5.37;;
7169;SDS011;3626;42.656;23.312;2024-01-30T00:23:10;9.37;;;5.40;;
7169;SDS011;3626;42.656;23.312;2024-01-30T00:23:16;9.60;;;5.43;;
7169;SDS011;3626;42.656;23.312;2024-01-30T00:23:22;10.15;;;5.60;;
7169;SDS011;3626;42.656;23.312;2024-01-30T00:23:27;10.40;;;5.57;;
7169;SDS011;3626;42.656;23.312;2024-01-30T00:23:33;10.48;;;5.47;;
7169;SDS011;3626;42.656;23.312;2024-01-30T00:23:39;10.43;;;5.40;;
7169;SDS011;3626;42.656;23.312;2024-01-30T00:23:45;11.27;;;5.50;;
7169;SDS011;3626;42.656;23.312;2024-01-30T00:23:51;11.67;;;5.60;;
7169;SDS011;3626;42.656;23.312;2024-01-30T00:23:57;11.35;;;5.60;;
7169;SDS011;3626;42.656;23.312;2024-01-30T00:24:04;11.27;;;5.60;;
7169;SDS011;3626;42.656;23.312;2024-01-30T00:24:10;11.07;;;5.65;;
7169;SDS011;3626;42.656;23.312;2024-01-30T00:24:15;11.10;;;5.65;;
7169;SDS011;3626;42.656;23.312;2024-01-30T00:24:21;10.63;;;5.50;;
7169;SDS011;3626;42.656;23.312;2024-01-30T00:24:27;10.52;;;5.50;;
7169;SDS011;3626;42.656;23.312;2024-01-30T00:24:33;10.70;;;5.60;;
7169;SDS011;3626;42.656;23.312;2024-01-30T00:24:39;10.67;;;5.70;;
7169;SDS011;3626;42.656;23.312;2024-01-30T00:24:45;9.77;;;5.60;;
7169;SDS011;3626;42.656;23.312;2024-01-30T00:24:51;9.70;;;5.60;;
7169;SDS011;3626;42.656;23.312;2024-01-30T00:24:56;9.70;;;5.57;;
7169;SDS011;3626;42.656;23.312;2024-01-30T00:25:02;9.80;;;5.50;;
7169;SDS011;3626;42.656;23.312;2024-01-30T00:25:09;9.84;;;5.58;;
7169;SDS011;3626;42.656;23.312;2024-01-30T00:25:15;9.93;;;5.72;;
7169;SDS011;3626;42.656;23.312;2024-01-30T00:25:21;9.82;;;5.72;;
7169;SDS011;3626;42.656;23.312;2024-01-30T00:25:27;9.50;;;5.70;;
7169;SDS011;3626;42.656;23.312;2024-01-30T00:25:32;9.15;;;5.60;;
7169;SDS011;3626;42.656;23.312;2024-01-30T00:25:38;8.90;;;5.53;;
7169;SDS011;3626;42.656;23.312;2024-01-30T00:25:44;8.85;;;5.50;;
7169;SDS011;3626;42.656;23.312;2024-01-30T00:25:50;8.60;;;5.55;;
7169;SDS011;3626;42.656;23.312;2024-01-30T00:25:56;8.57;;;5.50;;
7169;SDS011;3626;42.656;23.312;2024-01-30T00:26:02;8.80;;;5.60;;
7169;SDS011;3626;42.656;23.312;2024-01-30T00:26:11;8.60;;;5.40;;
7169;SDS011;3626;42.656;23.312;2024-01-30T00:26:17;8.53;;;5.30;;
7169;SDS011;3626;42.656;23.312;2024-01-30T00:26:22;8.55;;;5.30;;
7169;SDS011;3626;42.656;23.312;2024-01-30T00:26:28;9.03;;;5.37;;
7169;SDS011;3626;42.656;23.312;2024-01-30T00:26:34;9.40;;;5.50;;
7169;SDS011;3626;42.656;23.312;2024-01-30T00:26:40;9.82;;;5.60;;
7169;SDS011;3626;42.656;23.312;2024-01-30T00:26:46;10.05;;;5.68;;
7169;SDS011;3626;42.656;23.312;2024-01-30T00:26:52;10.35;;;5.68;;
7169;SDS011;3626;42.656;23.312;2024-01-30T00:26:57;10.30;;;5.65;;
7169;SDS011;3626;42.656;23.312;2024-01-30T00:27:03;10.23;;;5.53;;
7169;SDS011;3626;42.656;23.312;2024-01-30T00:27:09;10.30;;;5.54;;
7169;SDS011;3626;42.656;23.312;2024-01-30T00:27:16;10.40;;;5.50;;
7169;SDS011;3626;42.656;23.312;2024-01-30T00:27:21;10.48;;;5.55;;
7169;SDS011;3626;42.656;23.312;2024-01-30T00:27:27;10.40;;;5.60;;
7169;SDS011;3626;42.656;23.312;2024-01-30T00:27:33;10.35;;;5.63;;
7169;SDS011;3626;42.656;23.312;2024-01-30T00:27:39;10.30;;;5.68;;
7169;SDS011;3626;42.656;23.312;2024-01-30T00:27:45;10.30;;;5.63;;
7169;SDS011;3626;42.656;23.312;2024-01-30T00:27:51;10.40;;;5.77;;
7169;SDS011;3626;42.656;23.312;2024-01-30T00:27:57;10.30;;;5.70;;
7169;SDS011;3626;42.656;23.312;2024-01-30T00:28:02;10.30;;;5.80;;
7169;SDS011;3626;42.656;23.312;2024-01-30T00:28:10;10.57;;;6.00;;
7169;SDS011;3626;42.656;23.312;2024-01-30T00:28:15;10.40;;;5.93;;
7169;SDS011;3626;42.656;23.312;2024-01-30T00:28:21;10.35;;;5.82;;
7169;SDS011;3626;42.656;23.312;2024-01-30T00:28:27;10.35;;;5.72;;
7169;SDS011;3626;42.656;23.312;2024-01-30T00:28:33;10.37;;;5.60;;
7169;SDS011;3626;42.656;23.312;2024-01-30T00:28:39;10.05;;;5.47;;
7169;SDS011;3626;42.656;23.312;2024-01-30T00:28:45;10.05;;;5.50;;
7169;SDS011;3626;42.656;23.312;2024-01-30T00:28:50;9.70;;;5.38;;
7169;SDS011;3626;42.656;23.312;2024-01-30T00:28:56;9.93;;;5.43;;
7169;SDS011;3626;42.656;23.312;2024-01-30T00:29:02;9.95;;;5.50;;
7169;SDS011;3626;42.656;23.312;2024-01-30T00:29:08;9.63;;;5.40;;
7169;SDS011;3626;42.656;23.312;2024-01-30T00:29:14;9.43;;;5.40;;
7169;SDS011;3626;42.656;23.312;2024-01-30T00:29:24;9.44;;;5.50;;
7169;SDS011;3626;42.656;23.312;2024-01-30T00:29:34;10.17;;;5.60;;
7169;SDS011;3626;42.656;23.312;2024-01-30T00:29:40;10.60;;;5.70;;
7169;SDS011;3626;42.656;23.312;2024-01-30T00:29:46;10.40;;;5.60;;
7169;SDS011;3626;42.656;23.312;2024-01-30T00:29:52;10.47;;;5.63;;
7169;SDS011;3626;42.656;23.312;2024-01-30T00:29:57;10.30;;;5.50;;
7169;SDS011;3626;42.656;23.312;2024-01-30T00:30:04;10.40;;;5.40;;
7169;SDS011;3626;42.656;23.312;2024-01-30T00:30:12;10.23;;;5.30;;
7169;SDS011;3626;42.656;23.312;2024-01-30T00:30:18;10.16;;;5.26;;
7169;SDS011;3626;42.656;23.312;2024-01-30T00:30:24;9.95;;;5.13;;
7169;SDS011;3626;42.656;23.312;2024-01-30T00:30:30;9.45;;;5.15;;
7169;SDS011;3626;42.656;23.312;2024-01-30T00:30:36;8.48;;;5.10;;
7169;SDS011;3626;42.656;23.312;2024-01-30T00:30:42;8.40;;;5.00;;
7169;SDS011;3626;42.656;23.312;2024-01-30T00:30:47;8.23;;;5.00;;
7169;SDS011;3626;42.656;23.312;2024-01-30T00:30:53;8.30;;;4.95;;
7169;SDS011;3626;42.656;23.312;2024-01-30T00:30:59;8.23;;;5.00;;
7169;SDS011;3626;42.656;23.312;2024-01-30T00:31:05;8.38;;;4.95;;
7169;SDS011;3626;42.656;23.312;2024-01-30T00:31:11;8.68;;;5.00;;
7169;SDS011;3626;42.656;23.312;2024-01-30T00:31:17;8.70;;;5.00;;
7169;SDS011;3626;42.656;23.312;2024-01-30T00:31:23;8.85;;;5.10;;
7169;SDS011;3626;42.656;23.312;2024-01-30T00:31:29;9.07;;;5.10;;
7169;SDS011;3626;42.656;23.312;2024-01-30T00:31:35;9.02;;;5.10;;
7169;SDS011;3626;42.656;23.312;2024-01-30T00:31:40;9.07;;;5.10;;
7169;SDS011;3626;42.656;23.312;2024-01-30T00:31:46;9.90;;;5.27;;
7169;SDS011;3626;42.656;23.312;2024-01-30T00:31:52;9.85;;;5.30;;
7169;SDS011;3626;42.656;23.312;2024-01-30T00:31:59;9.90;;;5.30;;
7169;SDS011;3626;42.656;23.312;2024-01-30T00:32:05;9.95;;;5.30;;
7169;SDS011;3626;42.656;23.312;2024-01-30T00:32:11;9.80;;;5.30;;
7169;SDS011;3626;42.656;23.312;2024-01-30T00:32:17;10.05;;;5.40;;
7169;SDS011;3626;42.656;23.312;2024-01-30T00:32:24;10.20;;;5.47;;
7169;SDS011;3626;42.656;23.312;2024-01-30T00:32:30;10.48;;;5.53;;
7169;SDS011;3626;42.656;23.312;2024-01-30T00:32:35;10.60;;;5.60;;
7169;SDS011;3626;42.656;23.312;2024-01-30T00:32:42;10.60;;;5.80;;
7169;SDS011;3626;42.656;23.312;2024-01-30T00:32:47;10.40;;;5.80;;
7169;SDS011;3626;42.656;23.312;2024-01-30T00:32:53;10.20;;;5.80;;
7169;SDS011;3626;42.656;23.312;2024-01-30T00:32:59;10.05;;;5.90;;
7169;SDS011;3626;42.656;23.312;2024-01-30T00:33:05;10.00;;;5.87;;
7169;SDS011;3626;42.656;23.312;2024-01-30T00:33:11;10.02;;;5.82;;
7169;SDS011;3626;42.656;23.312;2024-01-30T00:33:17;9.98;;;5.85;;
7169;SDS011;3626;42.656;23.312;2024-01-30T00:33:23;9.90;;;5.82;;
7169;SDS011;3626;42.656;23.312;2024-01-30T00:33:28;9.43;;;5.72;;
7169;SDS011;3626;42.656;23.312;2024-01-30T00:33:35;9.37;;;5.83;;
7169;SDS011;3626;42.656;23.312;2024-01-30T00:33:41;9.45;;;5.80;;
7169;SDS011;3626;42.656;23.312;2024-01-30T00:33:47;9.10;;;5.63;;
7169;SDS011;3626;42.656;23.312;2024-01-30T00:33:53;9.10;;;5.60;;
7169;SDS011;3626;42.656;23.312;2024-01-30T00:33:59;9.27;;;5.57;;
7169;SDS011;3626;42.656;23.312;2024-01-30T00:34:04;9.50;;;5.68;;
7169;SDS011;3626;42.656;23.312;2024-01-30T00:34:10;9.57;;;5.60;;
7169;SDS011;3626;42.656;23.312;2024-01-30T00:34:16;9.85;;;5.70;;
7169;SDS011;3626;42.656;23.312;2024-01-30T00:34:22;9.80;;;5.70;;
7169;SDS011;3626;42.656;23.312;2024-01-30T00:34:28;9.90;;;5.60;;
7169;SDS011;3626;42.656;23.312;2024-01-30T00:34:34;9.77;;;5.43;;
7169;SDS011;3626;42.656;23.312;2024-01-30T00:34:41;9.27;;;5.10;;
7169;SDS011;3626;42.656;23.312;2024-01-30T00:34:47;10.57;;;5.30;;
7169;SDS011;3626;42.656;23.312;2024-01-30T00:34:52;10.50;;;5.30;;
7169;SDS011;3626;42.656;23.312;2024-01-30T00:34:58;10.07;;;5.15;;
7169;SDS011;3626;42.656;23.312;2024-01-30T00:35:04;9.40;;;4.93;;
7169;SDS011;3626;42.656;23.312;2024-01-30T00:35:11;9.32;;;4.97;;
7169;SDS011;3626;42.656;23.312;2024-01-30T00:35:17;9.46;;;4.80;;
7169;SDS011;3626;42.656;23.312;2024-01-30T00:35:23;9.88;;;4.80;;
7169;SDS011;3626;42.656;23.312;2024-01-30T00:35:29;10.15;;;4.88;;
7169;SDS011;3626;42.656;23.312;2024-01-30T00:35:35;10.60;;;5.03;;
7169;SDS011;3626;42.656;23.312;2024-01-30T00:35:41;10.85;;;5.10;;
7169;SDS011;3626;42.656;23.312;2024-01-30T00:35:47;9.20;;;4.80;;
7169;SDS011;3626;42.656;23.312;2024-01-30T00:35:52;9.23;;;4.80;;
7169;SDS011;3626;42.656;23.312;2024-01-30T00:35:58;9.88;;;4.90;;
7169;SDS011;3626;42.656;23.312;2024-01-30T00:36:04;10.23;;;5.07;;
7169;SDS011;3626;42.656;23.312;2024-01-30T00:36:11;10.30;;;5.20;;
7169;SDS011;3626;42.656;23.312;2024-01-30T00:36:17;9.85;;;5.22;;
7169;SDS011;3626;42.656;23.312;2024-01-30T00:36:22;9.15;;;5.20;;
7169;SDS011;3626;42.656;23.312;2024-01-30T00:36:28;8.83;;;5.10;;
7169;SDS011;3626;42.656;23.312;2024-01-30T00:36:35;8.58;;;4.94;;
7169;SDS011;3626;42.656;23.312;2024-01-30T00:36:41;8.73;;;5.03;;
7169;SDS011;3626;42.656;23.312;2024-01-30T00:36:47;9.23;;;5.28;;
7169;SDS011;3626;42.656;23.312;2024-01-30T00:36:53;9.32;;;5.35;;
7169;SDS011;3626;42.656;23.312;2024-01-30T00:36:59;8.90;;;5.30;;
7169;SDS011;3626;42.656;23.312;2024-01-30T00:37:04;8.73;;;5.30;;